createdAt,value
2022-09-14T00:00:45.441Z,4.47
2022-09-14T00:05:47.823Z,4.70
2022-09-14T00:10:50.087Z,3.53
2022-09-14T00:15:52.327Z,3.88
2022-09-14T00:21:08.768Z,3.90
2022-09-14T00:26:16.834Z,7.38
2022-09-14T00:31:20.344Z,6.07
2022-09-14T00:36:26.016Z,5.20
2022-09-14T00:41:34.952Z,4.03
2022-09-14T00:46:45.511Z,4.00
2022-09-14T00:51:57.107Z,5.57
2022-09-14T00:57:03.978Z,4.53
2022-09-14T01:02:09.540Z,6.22
2022-09-14T01:07:21.065Z,7.80
2022-09-14T01:12:23.322Z,4.28
2022-09-14T01:17:33.840Z,6.53
2022-09-14T01:22:44.804Z,5.90
2022-09-14T01:27:48.470Z,4.10
2022-09-14T01:33:07.910Z,6.88
2022-09-14T01:38:20.941Z,4.53
2022-09-14T01:43:37.960Z,5.97
2022-09-14T01:49:02.693Z,6.47
2022-09-14T01:54:25.567Z,4.88
2022-09-14T01:59:32.368Z,7.72
2022-09-14T02:04:51.463Z,6.05
2022-09-14T02:09:55.433Z,5.40
2022-09-14T02:14:57.869Z,5.53
2022-09-14T02:20:02.303Z,5.68
2022-09-14T02:25:05.086Z,7.20
2022-09-14T02:30:08.355Z,4.80
2022-09-14T02:35:19.538Z,5.13
2022-09-14T02:45:37.427Z,5.47
2022-09-14T02:50:51.801Z,9.15
2022-09-14T02:56:01.154Z,7.38
2022-09-14T03:01:04.715Z,4.57
2022-09-14T03:06:07.182Z,6.53
2022-09-14T03:11:09.379Z,4.53
2022-09-14T03:16:16.038Z,8.52
2022-09-14T03:21:18.463Z,8.55
2022-09-14T03:26:23.607Z,5.60
2022-09-14T03:31:26.809Z,7.80
2022-09-14T03:36:30.843Z,9.10
2022-09-14T03:41:32.975Z,9.25
2022-09-14T03:46:35.253Z,9.05
2022-09-14T03:51:37.481Z,7.50
2022-09-14T03:56:39.838Z,8.40
2022-09-14T04:01:41.972Z,6.68
2022-09-14T04:06:44.211Z,7.25
2022-09-14T04:11:47.279Z,6.75
2022-09-14T04:16:49.367Z,7.60
2022-09-14T04:21:51.538Z,5.82
2022-09-14T04:26:53.861Z,8.55
2022-09-14T04:31:55.961Z,7.43
2022-09-14T04:36:58.062Z,6.05
2022-09-14T04:42:00.164Z,6.82
2022-09-14T04:47:02.435Z,4.93
2022-09-14T04:52:04.733Z,8.80
2022-09-14T04:57:06.887Z,6.13
2022-09-14T05:02:09.022Z,5.30
2022-09-14T05:07:11.817Z,8.32
2022-09-14T05:12:13.948Z,6.03
2022-09-14T05:17:16.031Z,6.03
2022-09-14T05:22:18.195Z,8.80
2022-09-14T05:27:20.379Z,5.13
2022-09-14T05:32:22.586Z,7.75
2022-09-14T05:37:24.639Z,6.07
2022-09-14T05:42:26.789Z,4.60
2022-09-14T05:47:34.854Z,4.88
2022-09-14T05:52:40.904Z,2.97
2022-09-14T05:57:43.165Z,2.35
2022-09-14T06:02:53.679Z,4.13
2022-09-14T06:13:00.382Z,2.83
2022-09-14T06:18:02.570Z,2.20
2022-09-14T06:23:07.427Z,1.83
2022-09-14T06:28:09.632Z,2.13
2022-09-14T06:33:11.953Z,2.03
2022-09-14T06:38:15.218Z,2.08
2022-09-14T06:43:20.573Z,2.28
2022-09-14T06:48:22.823Z,3.17
2022-09-14T06:53:29.863Z,1.70
2022-09-14T06:58:34.172Z,1.85
2022-09-14T07:03:38.490Z,1.98
2022-09-14T07:08:40.926Z,4.20
2022-09-14T07:13:43.603Z,3.83
2022-09-14T07:18:45.719Z,1.80
2022-09-14T07:23:48.714Z,5.85
2022-09-14T07:28:56.926Z,3.25
2022-09-14T07:34:02.291Z,2.13
2022-09-14T07:39:06.261Z,3.85
2022-09-14T07:44:09.996Z,1.45
2022-09-14T07:49:12.839Z,2.13
2022-09-14T07:54:17.500Z,2.15
2022-09-14T07:59:37.195Z,2.08
2022-09-14T08:04:39.838Z,2.50
2022-09-14T08:09:42.102Z,1.45
2022-09-14T08:14:44.267Z,1.40
2022-09-14T08:19:46.434Z,2.00
2022-09-14T08:24:48.527Z,1.40
2022-09-14T08:29:50.550Z,1.70
2022-09-14T08:34:52.789Z,1.20
2022-09-14T08:39:54.981Z,1.77
2022-09-14T08:45:00.830Z,1.02
2022-09-14T08:50:19.285Z,1.48
2022-09-14T08:55:39.036Z,1.63
2022-09-14T09:00:53.530Z,1.67
2022-09-14T09:06:16.254Z,1.30
2022-09-14T09:11:22.961Z,1.15
2022-09-14T09:16:27.409Z,1.17
2022-09-14T09:21:35.881Z,1.65
2022-09-14T09:26:40.506Z,1.63
2022-09-14T09:31:53.508Z,2.72
2022-09-14T09:37:34.661Z,1.40
2022-09-14T09:42:36.996Z,2.03
2022-09-14T09:47:42.086Z,3.15
2022-09-14T09:52:55.991Z,1.10
2022-09-14T09:58:18.239Z,1.35
2022-09-14T10:03:37.778Z,1.20
2022-09-14T10:08:43.420Z,1.35
2022-09-14T10:13:47.501Z,3.58
2022-09-14T10:18:52.291Z,1.92
2022-09-14T10:24:18.241Z,1.05
2022-09-14T10:29:42.993Z,1.20
2022-09-14T10:34:45.969Z,4.07
2022-09-14T10:40:04.668Z,3.35
2022-09-14T10:45:26.588Z,2.10
2022-09-14T10:50:53.026Z,1.42
2022-09-14T10:56:02.037Z,4.22
2022-09-14T11:01:33.235Z,1.40
2022-09-14T11:06:46.514Z,2.78
2022-09-14T11:12:00.297Z,6.47
2022-09-14T11:17:37.973Z,4.55
2022-09-14T11:22:54.422Z,2.22
2022-09-14T11:28:21.576Z,3.63
2022-09-14T11:33:38.424Z,1.80
2022-09-14T11:38:49.064Z,1.20
2022-09-14T11:44:23.451Z,1.98
2022-09-14T11:49:40.230Z,1.65
2022-09-14T11:54:46.622Z,8.13
2022-09-14T11:59:55.076Z,1.10
2022-09-14T12:05:06.505Z,1.27
2022-09-14T12:10:17.778Z,1.75
2022-09-14T12:15:29.108Z,3.88
2022-09-14T12:20:37.829Z,9.32
2022-09-14T12:25:53.178Z,2.33
2022-09-14T12:30:55.485Z,1.45
2022-09-14T12:36:11.164Z,2.00
2022-09-14T12:41:33.534Z,1.50
2022-09-14T12:46:38.872Z,1.58
2022-09-14T12:51:48.045Z,1.13
2022-09-14T12:57:17.330Z,1.63
2022-09-14T13:02:41.505Z,2.17
2022-09-14T13:07:45.322Z,1.25
2022-09-14T13:12:48.925Z,1.58
2022-09-14T13:18:24.986Z,2.05
2022-09-14T13:23:41.172Z,1.83
2022-09-14T13:28:46.943Z,1.65
2022-09-14T13:33:54.540Z,1.60
2022-09-14T13:39:01.826Z,3.00
2022-09-14T13:44:06.000Z,2.97
2022-09-14T13:49:08.987Z,1.70
2022-09-14T13:54:29.899Z,1.40
2022-09-14T13:59:32.148Z,13.25
2022-09-14T14:04:37.989Z,1.67
2022-09-14T14:09:53.105Z,2.38
2022-09-14T14:14:58.497Z,2.58
2022-09-14T14:20:26.591Z,2.15
2022-09-14T14:25:35.774Z,1.90
2022-09-14T14:30:41.040Z,2.17
2022-09-14T14:35:43.262Z,1.92
2022-09-14T14:40:47.026Z,3.90
2022-09-14T14:45:56.416Z,2.78
2022-09-14T14:50:58.660Z,5.93
2022-09-14T14:56:01.006Z,10.75
2022-09-14T15:01:03.318Z,2.03
2022-09-14T15:06:19.426Z,4.88
2022-09-14T15:11:22.005Z,4.32
2022-09-14T15:16:24.961Z,3.75
2022-09-14T15:21:27.247Z,3.10
2022-09-14T15:26:29.553Z,2.47
2022-09-14T15:31:32.287Z,3.22
2022-09-14T15:36:53.438Z,5.30
2022-09-14T15:41:56.701Z,8.63
2022-09-14T15:46:59.382Z,2.90
2022-09-14T15:52:01.961Z,7.93
2022-09-14T15:57:06.915Z,17.23
2022-09-14T16:02:12.401Z,27.55
2022-09-14T16:07:19.764Z,94.35
2022-09-14T16:12:22.187Z,66.47
2022-09-14T16:17:24.322Z,55.67
2022-09-14T16:22:26.405Z,40.75
2022-09-14T16:27:29.011Z,28.98
2022-09-14T16:32:31.214Z,19.48
2022-09-14T16:37:33.546Z,12.10
2022-09-14T16:42:35.614Z,16.05
2022-09-14T16:47:38.624Z,12.30
2022-09-14T16:52:40.807Z,3.58
2022-09-14T16:57:43.020Z,8.95
2022-09-14T17:02:45.669Z,2.92
2022-09-14T17:07:48.271Z,8.88
2022-09-14T17:12:50.527Z,10.35
2022-09-14T17:17:55.422Z,2.78
2022-09-14T17:22:57.606Z,4.07
2022-09-14T17:28:02.152Z,4.78
2022-09-14T17:33:04.412Z,4.78
2022-09-14T17:38:06.651Z,2.80
2022-09-14T17:43:12.542Z,3.40
2022-09-14T17:48:22.255Z,4.05
2022-09-14T17:53:25.173Z,4.72
2022-09-14T17:58:27.424Z,4.63
2022-09-14T18:03:29.785Z,4.32
2022-09-14T18:08:32.191Z,3.60
2022-09-14T18:13:34.708Z,3.47
2022-09-14T18:18:37.505Z,3.17
2022-09-14T18:23:39.854Z,84.72
2022-09-14T18:28:42.119Z,23.55
2022-09-14T18:33:49.111Z,4.10
2022-09-14T18:38:53.236Z,4.20
2022-09-14T18:43:55.396Z,2.28
2022-09-14T18:48:59.642Z,5.03
2022-09-14T18:54:05.513Z,5.25
2022-09-14T18:59:11.427Z,4.05
2022-09-14T19:04:15.767Z,4.75
2022-09-14T19:09:18.005Z,4.18
2022-09-14T19:14:21.484Z,4.20
2022-09-14T19:19:24.836Z,5.28
2022-09-14T19:24:30.985Z,12.02
2022-09-14T19:29:33.369Z,5.22
2022-09-14T19:34:35.545Z,4.80
2022-09-14T19:39:37.647Z,4.03
2022-09-14T19:44:39.864Z,4.03
2022-09-14T19:49:42.246Z,4.80
2022-09-14T19:54:44.631Z,3.88
2022-09-14T19:59:46.764Z,4.80
2022-09-14T20:04:49.114Z,8.27
2022-09-14T20:09:51.441Z,3.55
2022-09-14T20:14:53.579Z,2.45
2022-09-14T20:19:55.695Z,11.68
2022-09-14T20:24:58.146Z,3.53
2022-09-14T20:30:00.363Z,12.18
2022-09-14T20:35:02.653Z,2.80
2022-09-14T20:40:05.711Z,2.63
2022-09-14T20:45:09.408Z,4.80
2022-09-14T20:50:13.887Z,6.10
2022-09-14T20:55:16.119Z,4.78
2022-09-14T21:00:18.403Z,3.80
2022-09-14T21:05:20.567Z,3.50
2022-09-14T21:10:28.579Z,4.68
2022-09-14T21:15:33.786Z,5.40
2022-09-14T21:20:37.420Z,3.97
2022-09-14T21:25:39.673Z,3.10
2022-09-14T21:30:41.975Z,5.63
2022-09-14T21:35:44.180Z,3.30
2022-09-14T21:40:46.280Z,8.18
2022-09-14T21:45:48.712Z,4.20
2022-09-14T21:50:50.935Z,4.35
2022-09-14T21:55:53.051Z,3.35
2022-09-14T22:00:59.520Z,3.67
2022-09-14T22:06:06.800Z,4.20
2022-09-14T22:11:15.322Z,5.38
2022-09-14T22:16:18.407Z,3.70
2022-09-14T22:21:21.987Z,4.60
2022-09-14T22:26:25.726Z,3.25
2022-09-14T22:31:29.292Z,3.40
2022-09-14T22:36:31.699Z,4.60
2022-09-14T22:41:34.679Z,5.45
2022-09-14T22:46:37.299Z,4.72
2022-09-14T22:51:39.839Z,4.32
2022-09-14T22:56:41.978Z,5.95
2022-09-14T23:01:44.991Z,3.60
2022-09-14T23:06:48.513Z,3.22
2022-09-14T23:11:50.886Z,4.88
2022-09-14T23:16:53.130Z,3.97
2022-09-14T23:21:55.397Z,3.58
2022-09-14T23:26:57.600Z,5.45
2022-09-14T23:31:59.878Z,3.38
2022-09-14T23:37:02.262Z,3.85
2022-09-14T23:42:04.729Z,4.15
2022-09-14T23:47:07.005Z,3.65
2022-09-14T23:52:09.266Z,6.63
